Time;durP1;ratioP1;P1;durP2;ratioP2;P2;SDS_P1;SDS_P2;PMS_P1;PMS_P2;Temp;Humidity;BMP_temperature;BMP_pressure;BME280_temperature;BME280_humidity;BME280_pressure;Samples;Min_cycle;Max_cycle;Signal;HPM_P1;HPM_P2
2021/11/04 00:00:27;;;;;;;308.98;67.78;;;;;;;;;;4410000;32;19933;-74
2021/11/04 00:02:53;;;;;;;304.15;73.78;;;;;;;;;;4422860;32;20086;-73
2021/11/04 00:05:18;;;;;;;;;;;;;;;;;;4410056;32;20026;-74
2021/11/04 00:07:45;;;;;;;250.02;66.45;;;;;;;;;;4423845;32;19978;-73
2021/11/04 00:10:11;;;;;;;236.18;73.10;;;;;;;;;;4437711;32;20133;-74
2021/11/04 00:12:37;;;;;;;338.67;78.05;;;;;;;;;;4401454;32;20046;-73
2021/11/04 00:15:02;;;;;;;;;;;;;;;;;;4410642;32;20130;-73
2021/11/04 00:17:27;;;;;;;171.30;60.30;;;;;;;;;;4408375;32;19941;-74
2021/11/04 00:19:52;;;;;;;;;;;;;;;;;;4424167;32;20598;-74
2021/11/04 00:22:17;;;;;;;196.93;66.82;;;;;;;;;;4408392;32;19964;-72
2021/11/04 00:24:42;;;;;;;;;;;;;;;;;;4424227;32;20122;-72
2021/11/04 00:27:08;;;;;;;155.93;57.10;;;;;;;;;;4412798;32;19942;-73
2021/11/04 00:29:33;;;;;;;;;;;;;;;;;;4393717;32;20359;-73
2021/11/04 00:32:00;;;;;;;312.77;78.82;;;;;;;;;;4392876;32;20354;-73
2021/11/04 00:34:25;;;;;;;169.98;65.05;;;;;;;;;;4394144;32;20114;-73
2021/11/04 00:36:50;;;;;;;;;;;;;;;;;;4407363;32;20057;-73
2021/11/04 00:39:16;;;;;;;154.93;57.53;;;;;;;;;;4408001;32;19933;-73
2021/11/04 00:41:41;;;;;;;;;;;;;;;;;;4407701;32;20122;-72
2021/11/04 00:44:06;;;;;;;68.68;43.08;;;;;;;;;;4407138;32;19933;-74
2021/11/04 00:46:31;;;;;;;;;;;;;;;;;;4414188;32;20660;-74
2021/11/04 00:48:57;;;;;;;108.05;51.58;;;;;;;;;;4422856;32;19941;-74
2021/11/04 00:51:22;;;;;;;;;;;;;;;;;;4423868;32;20137;-75
2021/11/04 00:53:47;;;;;;;53.55;39.85;;;;;;;;;;4412073;32;19941;-74
2021/11/04 00:56:12;;;;;;;;;;;;;;;;;;4408948;32;20337;-73
2021/11/04 00:58:37;;;;;;;64.47;45.12;;;;;;;;;;4423379;32;19944;-74
2021/11/04 01:01:02;;;;;;;;;;;;;;;;;;4421969;32;20057;-74
2021/11/04 01:03:27;;;;;;;54.28;39.00;;;;;;;;;;4422459;32;20250;-73
2021/11/04 01:05:53;;;;;;;;;;;;;;;;;;4423189;32;20190;-73
2021/11/04 01:08:18;;;;;;;56.40;40.80;;;;;;;;;;4421739;32;19960;-76
2021/11/04 01:10:43;;;;;;;;;;;;;;;;;;4423654;32;20057;-75
2021/11/04 01:13:09;;;;;;;56.22;41.70;;;;;;;;;;4409636;32;20026;-75
2021/11/04 01:15:34;;;;;;;;;;;;;;;;;;4423321;32;20474;-75
2021/11/04 01:17:59;;;;;;;48.28;36.92;;;;;;;;;;4421472;32;19941;-75
2021/11/04 01:20:24;;;;;;;;;;;;;;;;;;4422268;32;20042;-73
2021/11/04 01:22:50;;;;;;;56.70;40.33;;;;;;;;;;4422584;32;20247;-74
2021/11/04 01:25:16;;;;;;;;;;;;;;;;;;4424325;32;20030;-74
2021/11/04 01:27:41;;;;;;;55.58;40.70;;;;;;;;;;4422589;32;20281;-75
2021/11/04 01:30:06;;;;;;;;;;;;;;;;;;4422408;32;20046;-75
2021/11/04 01:32:32;;;;;;;48.70;37.72;;;;;;;;;;4422745;32;20001;-75
2021/11/04 01:34:57;;;;;;;;;;;;;;;;;;4422303;32;20144;-75
2021/11/04 01:37:22;;;;;;;54.53;38.55;;;;;;;;;;4408015;32;19953;-75
2021/11/04 01:39:47;;;;;;;;;;;;;;;;;;4423509;32;20044;-75
2021/11/04 01:42:12;;;;;;;49.13;37.85;;;;;;;;;;4422433;32;19989;-74
2021/11/04 01:44:41;;;;;;;;;;;;;;;;;;4407755;32;20041;-74
2021/11/04 01:47:07;;;;;;;56.47;39.92;;;;;;;;;;4421442;32;19941;-73
2021/11/04 01:49:32;;;;;;;59.63;41.15;;;;;;;;;;4421591;32;20030;-75
2021/11/04 01:51:57;;;;;;;;;;;;;;;;;;4421727;32;20360;-74
2021/11/04 01:54:23;;;;;;;57.95;41.05;;;;;;;;;;4421418;32;20333;-74
2021/11/04 01:56:48;;;;;;;;;;;;;;;;;;4422842;32;20122;-74
2021/11/04 01:59:13;;;;;;;58.70;39.90;;;;;;;;;;4407398;32;20278;-74
2021/11/04 02:01:38;;;;;;;;;;;;;;;;;;4421522;32;20573;-74
2021/11/04 02:04:28;;;;;;;73.55;45.50;;;;;;;;;;4421694;32;20295;-74
2021/11/04 02:07:01;;;;;;;50.63;39.40;;;;;;;;;;4407150;32;20186;-74
2021/11/04 02:09:29;;;;;;;52.10;38.30;;;;;;;;;;4421522;32;20037;-74
2021/11/04 02:11:56;;;;;;;49.58;37.75;;;;;;;;;;4421183;32;20095;-74
2021/11/04 02:14:24;;;;;;;48.03;35.85;;;;;;;;;;4422172;32;20041;-75
2021/11/04 02:16:51;;;;;;;63.67;42.17;;;;;;;;;;4422378;32;20101;-74
2021/11/04 02:19:20;;;;;;;50.92;38.10;;;;;;;;;;4421695;32;20026;-74
2021/11/04 02:21:51;;;;;;;53.65;40.10;;;;;;;;;;4421163;32;20026;-74
2021/11/04 02:24:30;;;;;;;54.30;40.47;;;;;;;;;;4395338;32;20056;-74
2021/11/04 02:26:56;;;;;;;46.63;36.33;;;;;;;;;;4422260;32;20070;-74
2021/11/04 02:29:21;;;;;;;;;;;;;;;;;;4421541;32;20369;-75
2021/11/04 02:31:47;;;;;;;50.78;37.72;;;;;;;;;;4407691;32;19941;-75
2021/11/04 02:34:13;;;;;;;47.67;35.45;;;;;;;;;;4420688;32;20049;-74
2021/11/04 02:36:38;;;;;;;;;;;;;;;;;;4420908;32;20089;-74
2021/11/04 02:39:04;;;;;;;48.34;36.10;;;;;;;;;;4421796;32;19965;-74
2021/11/04 02:41:29;;;;;;;;;;;;;;;;;;4407552;32;20347;-74
2021/11/04 02:43:57;;;;;;;44.55;33.00;;;;;;;;;;4421621;32;19968;-74
2021/11/04 02:46:26;;;;;;;41.17;32.65;;;;;;;;;;4421753;32;20129;-74
2021/11/04 02:48:52;;;;;;;41.00;32.72;;;;;;;;;;4407256;32;20026;-74
2021/11/04 02:51:18;;;;;;;39.92;31.75;;;;;;;;;;4418499;32;20068;-74
2021/11/04 02:53:43;;;;;;;;;;;;;;;;;;4421154;32;20097;-74
2021/11/04 02:56:08;;;;;;;39.63;29.92;;;;;;;;;;4421166;32;19992;-75
2021/11/04 02:58:34;;;;;;;;;;;;;;;;;;4419905;32;20577;-74
2021/11/04 03:01:00;;;;;;;37.47;28.50;;;;;;;;;;4420651;32;19933;-74
2021/11/04 03:03:25;;;;;;;;;;;;;;;;;;4421420;32;20083;-74
2021/11/04 03:05:50;;;;;;;45.15;32.10;;;;;;;;;;4420345;32;19933;-75
2021/11/04 03:08:15;;;;;;;;;;;;;;;;;;4420440;32;20200;-74
2021/11/04 03:10:41;;;;;;;42.74;32.28;;;;;;;;;;4421183;32;19976;-74
2021/11/04 03:13:06;;;;;;;;;;;;;;;;;;4421004;32;20026;-74
2021/11/04 03:15:37;;;;;;;41.40;31.27;;;;;;;;;;4406096;32;19945;-75
2021/11/04 03:18:03;;;;;;;43.60;32.08;;;;;;;;;;4420354;32;20212;-74
2021/11/04 03:20:29;;;;;;;;;;;;;;;;;;4421299;32;20025;-75
2021/11/04 03:22:55;;;;;;;46.67;33.58;;;;;;;;;;4420401;32;19969;-74
2021/11/04 03:25:21;;;;;;;46.92;35.05;;;;;;;;;;4420674;32;20034;-75
2021/11/04 03:27:46;;;;;;;;;;;;;;;;;;4420839;32;20342;-75
2021/11/04 03:30:20;;;;;;;41.40;31.02;;;;;;;;;;4419977;32;19941;-74
2021/11/04 03:32:46;;;;;;;46.88;34.72;;;;;;;;;;4420079;32;20062;-75
2021/11/04 03:35:11;;;;;;;;;;;;;;;;;;4420958;32;20071;-75
2021/11/04 03:37:48;;;;;;;39.75;30.33;;;;;;;;;;4420731;32;19949;-73
2021/11/04 03:40:23;;;;;;;40.65;31.87;;;;;;;;;;4421861;32;20079;-74
2021/11/04 03:42:56;;;;;;;41.78;32.50;;;;;;;;;;4407044;32;20030;-74
2021/11/04 03:45:21;;;;;;;38.00;29.70;;;;;;;;;;4419994;32;20059;-74
2021/11/04 03:47:49;;;;;;;;;;;;;;;;;;4406943;32;20038;-74
2021/11/04 03:50:26;;;;;;;87.97;37.17;;;;;;;;;;4419829;32;19972;-74
2021/11/04 03:53:11;;;;;;;45.97;33.25;;;;;;;;;;4406972;32;20027;-74
2021/11/04 03:55:37;;;;;;;83.75;37.83;;;;;;;;;;4406392;32;20373;-74
2021/11/04 03:58:02;;;;;;;;;;;;;;;;;;4420835;32;20083;-74
2021/11/04 04:00:28;;;;;;;116.28;38.63;;;;;;;;;;4420225;32;19944;-74
2021/11/04 04:02:53;;;;;;;;;;;;;;;;;;4420682;32;20053;-74
2021/11/04 04:05:31;;;;;;;129.20;40.97;;;;;;;;;;4420730;32;19933;-74
2021/11/04 04:07:57;;;;;;;88.82;37.17;;;;;;;;;;4419928;32;20037;-74
2021/11/04 04:10:29;;;;;;;;;;;;;;;;;;4420882;32;20439;-73
2021/11/04 04:12:57;;;;;;;99.40;37.42;;;;;;;;;;4419868;32;19968;-73
2021/11/04 04:15:29;;;;;;;84.87;35.88;;;;;;;;;;4420078;32;20018;-73
2021/11/04 04:17:54;;;;;;;146.10;45.60;;;;;;;;;;4420268;32;20050;-73
2021/11/04 04:20:20;;;;;;;;;;;;;;;;;;4419817;32;20483;-74
2021/11/04 04:22:46;;;;;;;95.03;35.97;;;;;;;;;;4420248;32;20039;-73
2021/11/04 04:25:11;;;;;;;;;;;;;;;;;;4420182;32;20029;-74
2021/11/04 04:27:36;;;;;;;50.35;34.15;;;;;;;;;;4419928;32;19956;-75
2021/11/04 04:30:01;;;;;;;;;;;;;;;;;;4420055;32;20148;-75
2021/11/04 04:32:27;;;;;;;67.68;35.72;;;;;;;;;;4419755;32;19951;-75
2021/11/04 04:34:52;;;;;;;;;;;;;;;;;;4420765;32;20025;-74
2021/11/04 04:37:26;;;;;;;111.45;36.58;;;;;;;;;;4419594;32;19963;-74
2021/11/04 04:39:54;;;;;;;72.57;33.42;;;;;;;;;;4406679;32;20347;-74
2021/11/04 04:42:25;;;;;;;97.07;36.63;;;;;;;;;;4419796;32;20026;-74
2021/11/04 04:44:51;;;;;;;56.88;32.15;;;;;;;;;;4422266;32;20087;-74
2021/11/04 04:47:16;;;;;;;;;;;;;;;;;;4409450;32;20022;-75
2021/11/04 04:49:41;;;;;;;45.55;31.05;;;;;;;;;;4408775;32;19979;-75
2021/11/04 04:52:06;;;;;;;;;;;;;;;;;;4409549;32;20085;-74
2021/11/04 04:54:34;;;;;;;46.78;31.80;;;;;;;;;;4422226;32;19993;-73
2021/11/04 04:57:00;;;;;;;54.42;36.85;;;;;;;;;;4422450;32;20125;-74
2021/11/04 04:59:25;;;;;;;;;;;;;;;;;;4409156;32;20017;-73
2021/11/04 05:01:51;;;;;;;48.38;30.77;;;;;;;;;;4422126;32;19961;-73
2021/11/04 05:04:16;;;;;;;;;;;;;;;;;;4423018;32;20076;-74
2021/11/04 05:06:58;;;;;;;48.20;34.08;;;;;;;;;;4408368;32;19941;-73
2021/11/04 05:09:23;;;;;;;50.47;34.08;;;;;;;;;;4422350;32;20062;-74
2021/11/04 05:11:48;;;;;;;;;;;;;;;;;;4422645;32;20079;-74
2021/11/04 05:14:14;;;;;;;46.28;33.80;;;;;;;;;;4422418;32;19981;-74
2021/11/04 05:16:39;;;;;;;;;;;;;;;;;;4408818;32;20045;-74
2021/11/04 05:19:04;;;;;;;46.46;32.96;;;;;;;;;;4407603;32;19997;-74
2021/11/04 05:21:30;;;;;;;;;;;;;;;;;;4422370;32;20022;-74
2021/11/04 05:23:55;;;;;;;57.38;38.45;;;;;;;;;;4422228;32;19937;-74
2021/11/04 05:26:23;;;;;;;;;;;;;;;;;;4408452;32;20049;-73
2021/11/04 05:28:49;;;;;;;39.67;29.92;;;;;;;;;;4421748;32;19945;-73
2021/11/04 05:31:14;;;;;;;;;;;;;;;;;;4408743;32;20421;-74
2021/11/04 05:33:40;;;;;;;46.33;33.33;;;;;;;;;;4408179;32;19949;-74
2021/11/04 05:36:05;;;;;;;;;;;;;;;;;;4408079;32;20384;-74
2021/11/04 05:38:30;;;;;;;42.80;31.58;;;;;;;;;;4422714;32;19933;-74
2021/11/04 05:41:13;;;;;;;;;;;;;;;;;;4421799;32;20034;-74
2021/11/04 05:43:45;;;;;;;37.22;28.60;;;;;;;;;;4407578;32;19933;-73
2021/11/04 05:46:11;;;;;;;44.88;29.75;;;;;;;;;;4421699;32;20072;-74
2021/11/04 05:48:36;;;;;;;;;;;;;;;;;;4421622;32;20088;-75
2021/11/04 05:51:04;;;;;;;40.63;31.42;;;;;;;;;;4421851;32;19937;-74
2021/11/04 05:53:30;;;;;;;41.05;30.88;;;;;;;;;;4421557;32;20133;-74
2021/11/04 05:56:16;;;;;;;;;;;;;;;;;;4422129;32;20026;-73
2021/11/04 05:58:55;;;;;;;44.58;32.60;;;;;;;;;;4421578;32;20323;-73
2021/11/04 06:01:21;;;;;;;48.87;34.70;;;;;;;;;;4403852;32;20023;-75
2021/11/04 06:03:46;;;;;;;;;;;;;;;;;;4392931;32;20037;-75
2021/11/04 06:06:11;;;;;;;50.75;31.98;;;;;;;;;;4417548;32;19944;-73
2021/11/04 06:08:36;;;;;;;;;;;;;;;;;;4419640;32;20141;-74
2021/11/04 06:11:03;;;;;;;39.50;30.08;;;;;;;;;;4407857;32;19941;-71
2021/11/04 06:13:31;;;;;;;40.65;29.80;;;;;;;;;;4421123;32;20064;-74
2021/11/04 06:16:22;;;;;;;;;;;;;;;;;;;;;
2021/11/04 06:18:48;;;;;;;35.60;26.98;;;;;;;;;;4422293;32;20026;-72
2021/11/04 06:21:14;;;;;;;32.80;26.40;;;;;;;;;;4420820;32;20026;-74
2021/11/04 06:23:39;;;;;;;;;;;;;;;;;;4421886;32;20388;-74
2021/11/04 06:26:04;;;;;;;35.45;26.75;;;;;;;;;;4421469;32;19973;-74
2021/11/04 06:28:35;;;;;;;;;;;;;;;;;;4422011;32;20018;-73
2021/11/04 06:31:01;;;;;;;35.17;25.30;;;;;;;;;;4420880;32;19941;-75
2021/11/04 06:33:26;;;;;;;;;;;;;;;;;;4422043;32;20363;-74
2021/11/04 06:35:54;;;;;;;43.67;27.50;;;;;;;;;;4421108;32;19933;-76
2021/11/04 06:38:20;;;;;;;40.05;26.87;;;;;;;;;;4420526;32;20145;-74
2021/11/04 06:40:45;;;;;;;;;;;;;;;;;;4406894;32;20057;-74
2021/11/04 06:43:12;;;;;;;36.95;26.27;;;;;;;;;;4407203;32;19979;-74
2021/11/04 06:45:38;;;;;;;45.67;29.15;;;;;;;;;;4421036;32;20117;-76
2021/11/04 06:48:07;;;;;;;36.70;26.27;;;;;;;;;;4420615;32;20064;-75
2021/11/04 06:50:32;;;;;;;37.38;26.75;;;;;;;;;;4420285;32;20150;-74
2021/11/04 06:52:58;;;;;;;;;;;;;;;;;;4420553;32;20030;-75
2021/11/04 06:55:26;;;;;;;33.50;24.83;;;;;;;;;;4421818;32;19985;-74
2021/11/04 06:57:52;;;;;;;31.75;24.37;;;;;;;;;;4420261;32;20030;-72
2021/11/04 07:00:18;;;;;;;;;;;;;;;;;;4419975;32;20458;-75
2021/11/04 07:02:45;;;;;;;33.58;22.67;;;;;;;;;;4405964;32;19941;-72
2021/11/04 07:05:13;;;;;;;29.85;19.58;;;;;;;;;;4420557;32;20133;-74
2021/11/04 07:07:47;;;;;;;26.98;19.98;;;;;;;;;;4421395;32;20045;-75
2021/11/04 07:10:13;;;;;;;38.33;18.90;;;;;;;;;;4420054;32;20104;-74
2021/11/04 07:12:43;;;;;;;26.30;17.60;;;;;;;;;;4420294;32;20025;-73
2021/11/04 07:15:11;;;;;;;29.92;19.42;;;;;;;;;;4419307;32;20026;-73
2021/11/04 07:17:42;;;;;;;23.23;14.60;;;;;;;;;;4421064;32;20038;-74
2021/11/04 07:20:07;;;;;;;20.77;12.13;;;;;;;;;;4405735;32;20404;-73
2021/11/04 07:22:32;;;;;;;;;;;;;;;;;;4419670;32;20111;-73
2021/11/04 07:25:05;;;;;;;18.80;12.05;;;;;;;;;;4419800;32;19984;-73
2021/11/04 07:27:32;;;;;;;22.02;15.38;;;;;;;;;;4419470;32;20622;-72
2021/11/04 07:30:00;;;;;;;24.90;14.25;;;;;;;;;;4420013;32;20060;-74
2021/11/04 07:32:27;;;;;;;18.60;12.80;;;;;;;;;;4419968;32;20109;-75
2021/11/04 07:34:56;;;;;;;21.30;12.73;;;;;;;;;;4419722;32;20441;-74
2021/11/04 07:37:24;;;;;;;20.30;12.40;;;;;;;;;;4419690;32;20051;-75
2021/11/04 07:39:50;;;;;;;20.92;12.05;;;;;;;;;;4419508;32;20034;-74
2021/11/04 07:42:15;;;;;;;;;;;;;;;;;;4419669;32;20399;-73
2021/11/04 07:44:40;;;;;;;15.52;9.93;;;;;;;;;;4405986;32;20001;-74
2021/11/04 07:47:06;;;;;;;;;;;;;;;;;;4420096;32;20413;-72
2021/11/04 07:49:31;;;;;;;14.02;9.90;;;;;;;;;;4420078;32;20245;-73
2021/11/04 07:52:00;;;;;;;;;;;;;;;;;;4420134;32;20366;-73
2021/11/04 07:54:26;;;;;;;16.17;9.00;;;;;;;;;;4418769;32;19968;-73
2021/11/04 07:56:52;;;;;;;14.43;11.30;;;;;;;;;;4419633;32;20030;-73
2021/11/04 07:59:17;;;;;;;;;;;;;;;;;;4419678;32;20051;-72
2021/11/04 08:01:42;;;;;;;15.60;9.35;;;;;;;;;;4420228;32;19943;-74
2021/11/04 08:04:07;;;;;;;;;;;;;;;;;;4409174;32;20105;-74
2021/11/04 08:06:32;;;;;;;12.18;8.73;;;;;;;;;;4404455;32;20048;-71
2021/11/04 08:08:57;;;;;;;;;;;;;;;;;;4390645;32;20471;-73
2021/11/04 08:11:22;;;;;;;16.25;9.35;;;;;;;;;;4404385;32;20075;-73
2021/11/04 08:13:50;;;;;;;;;;;;;;;;;;4405083;32;20118;-75
2021/11/04 08:16:16;;;;;;;17.30;9.77;;;;;;;;;;4405559;32;19941;-72
2021/11/04 08:18:41;;;;;;;;;;;;;;;;;;4408699;32;20091;-73
2021/11/04 08:21:06;;;;;;;10.63;7.93;;;;;;;;;;4407476;32;19937;-73
2021/11/04 08:23:32;;;;;;;;;;;;;;;;;;4408242;32;20160;-75
2021/11/04 08:25:58;;;;;;;10.00;6.68;;;;;;;;;;4394019;32;19937;-73
2021/11/04 08:28:23;;;;;;;;;;;;;;;;;;4407847;32;20053;-72
2021/11/04 08:30:48;;;;;;;15.63;8.65;;;;;;;;;;4407390;32;19942;-74
2021/11/04 08:33:14;;;;;;;;;;;;;;;;;;4408607;32;20143;-72
2021/11/04 08:35:39;;;;;;;12.10;6.98;;;;;;;;;;4407904;32;19976;-72
2021/11/04 08:38:04;;;;;;;;;;;;;;;;;;4411149;32;20106;-72
2021/11/04 08:40:30;;;;;;;11.85;6.47;;;;;;;;;;4422538;32;19951;-73
2021/11/04 08:42:55;;;;;;;;;;;;;;;;;;4422562;32;20446;-71
2021/11/04 08:45:20;;;;;;;9.48;6.70;;;;;;;;;;4410415;32;19949;-75
2021/11/04 08:47:45;;;;;;;;;;;;;;;;;;4423139;32;20079;-71
2021/11/04 08:50:11;;;;;;;9.32;6.07;;;;;;;;;;4423456;32;19965;-74
2021/11/04 08:52:36;;;;;;;;;;;;;;;;;;4424499;32;20122;-74
2021/11/04 08:55:05;;;;;;;10.98;7.15;;;;;;;;;;4422638;32;19984;-73
2021/11/04 08:57:30;;;;;;;9.38;5.60;;;;;;;;;;4423135;32;20147;-72
2021/11/04 08:59:56;;;;;;;;;;;;;;;;;;4409090;32;20046;-71
2021/11/04 09:02:21;;;;;;;9.88;5.25;;;;;;;;;;4422458;32;20319;-73
2021/11/04 09:04:46;;;;;;;;;;;;;;;;;;4422523;32;20022;-74
2021/11/04 09:07:15;;;;;;;13.85;5.45;;;;;;;;;;4422639;32;19980;-75
2021/11/04 09:09:41;;;;;;;13.15;5.30;;;;;;;;;;4422081;32;20155;-74
2021/11/04 09:12:06;;;;;;;;;;;;;;;;;;4422904;32;20026;-75
2021/11/04 09:14:31;;;;;;;9.23;4.62;;;;;;;;;;4408362;32;19937;-74
2021/11/04 09:17:02;;;;;;;;;;;;;;;;;;4422275;32;20018;-73
2021/11/04 09:19:34;;;;;;;12.37;5.35;;;;;;;;;;4408730;32;19941;-74
2021/11/04 09:22:04;;;;;;;9.73;6.32;;;;;;;;;;4422302;32;20053;-76
2021/11/04 09:24:39;;;;;;;11.00;4.97;;;;;;;;;;4422428;32;20082;-74
2021/11/04 09:27:06;;;;;;;11.48;4.95;;;;;;;;;;4395577;32;20435;-74
2021/11/04 09:29:31;;;;;;;;;;;;;;;;;;4417299;32;20097;-75
2021/11/04 09:32:09;;;;;;;8.75;4.72;;;;;;;;;;4408699;32;19933;-74
2021/11/04 09:34:35;;;;;;;14.35;5.75;;;;;;;;;;4422208;32;20479;-74
2021/11/04 09:37:00;;;;;;;;;;;;;;;;;;4422314;32;20018;-75
2021/11/04 09:39:35;;;;;;;;;;;;;;;;;;;;;
2021/11/04 09:42:05;;;;;;;4.55;2.97;;;;;;;;;;4418078;32;20133;-74
2021/11/04 09:44:30;;;;;;;5.65;2.20;;;;;;;;;;4422049;32;20018;-73
2021/11/04 09:46:56;;;;;;;;;;;;;;;;;;4422033;32;20046;-74
2021/11/04 09:49:21;;;;;;;5.30;1.45;;;;;;;;;;4421773;32;19953;-76
2021/11/04 09:51:47;;;;;;;;;;;;;;;;;;4422253;32;20186;-75
2021/11/04 09:54:13;;;;;;;5.50;2.50;;;;;;;;;;4421928;32;19941;-75
2021/11/04 09:56:43;;;;;;;;;;;;;;;;;;4421365;32;20022;-75
2021/11/04 09:59:08;;;;;;;8.18;1.98;;;;;;;;;;4421256;32;19936;-75
2021/11/04 10:01:44;;;;;;;;;;;;;;;;;;;;;
2021/11/04 10:04:13;;;;;;;7.60;1.80;;;;;;;;;;4406981;32;19964;-74
2021/11/04 10:06:56;;;;;;;7.78;1.77;;;;;;;;;;4421415;32;20064;-74
2021/11/04 10:09:25;;;;;;;7.57;1.70;;;;;;;;;;4421504;32;20071;-75
2021/11/04 10:11:56;;;;;;;7.18;1.95;;;;;;;;;;4421539;32;20022;-74
2021/11/04 10:14:21;;;;;;;6.00;1.45;;;;;;;;;;4421472;32;20030;-75
2021/11/04 10:16:46;;;;;;;;;;;;;;;;;;4421919;32;20072;-74
2021/11/04 10:19:13;;;;;;;11.50;2.55;;;;;;;;;;4421764;32;20262;-75
2021/11/04 10:21:41;;;;;;;5.75;1.58;;;;;;;;;;4421680;32;20059;-71
2021/11/04 10:24:13;;;;;;;7.40;2.12;;;;;;;;;;4421346;32;20415;-74
2021/11/04 10:26:39;;;;;;;13.52;2.10;;;;;;;;;;4421375;32;20022;-74
2021/11/04 10:29:04;;;;;;;;;;;;;;;;;;4421366;32;20114;-74
2021/11/04 10:31:36;;;;;;;7.65;2.03;;;;;;;;;;4407327;32;19937;-75
2021/11/04 10:34:36;;;;;;;14.13;3.12;;;;;;;;;;4421205;32;20079;-75
2021/11/04 10:37:52;;;;;;;6.53;1.85;;;;;;;;;;4421529;32;20056;-73
2021/11/04 10:40:19;;;;;;;6.22;1.80;;;;;;;;;;4329562;33;20032;-75
2021/11/04 10:43:06;;;;;;;4.57;1.52;;;;;;;;;;4410414;32;20030;-75
2021/11/04 10:45:31;;;;;;;;;;;;;;;;;;4408164;32;20038;-76
2021/11/04 10:52:17;;;;;;;6.62;2.03;;;;;;;;;;4421085;32;20095;-75
2021/11/04 10:54:17;;;;;;;6.53;1.77;;;;;;;;;;4354455;32;20060;-75
2021/11/04 10:56:42;;;;;;;;;;;;;;;;;;4391249;32;20023;-75
2021/11/04 10:59:57;;;;;;;7.87;1.87;;;;;;;;;;4390583;32;19934;-75
2021/11/04 11:02:33;;;;;;;8.73;2.25;;;;;;;;;;4384449;32;20061;-75
2021/11/04 11:05:03;;;;;;;8.93;2.45;;;;;;;;;;4379420;32;20052;-76
2021/11/04 11:07:31;;;;;;;6.68;1.70;;;;;;;;;;4390449;32;20076;-75
2021/11/04 11:10:21;;;;;;;5.80;2.22;;;;;;;;;;4403401;32;20046;-75
2021/11/04 11:12:50;;;;;;;8.27;1.70;;;;;;;;;;4391650;32;20046;-75
2021/11/04 11:15:15;;;;;;;3.55;1.27;;;;;;;;;;4391493;32;20066;-75
2021/11/04 11:17:42;;;;;;;;;;;;;;;;;;4405620;32;20132;-74
2021/11/04 11:20:08;;;;;;;2.42;1.45;;;;;;;;;;4391811;32;20224;-75
2021/11/04 11:22:35;;;;;;;2.37;0.85;;;;;;;;;;4390690;32;20067;-75
2021/11/04 11:25:14;;;;;;;2.80;0.95;;;;;;;;;;4405515;32;20219;-75
2021/11/04 11:27:39;;;;;;;2.33;0.90;;;;;;;;;;4404744;32;20056;-76
2021/11/04 11:30:11;;;;;;;2.72;1.02;;;;;;;;;;4391203;32;20069;-76
2021/11/04 11:32:37;;;;;;;3.15;1.10;;;;;;;;;;4405806;32;20061;-75
2021/11/04 11:38:07;;;;;;;4.97;1.20;;;;;;;;;;4405471;32;20044;-75
2021/11/04 11:40:35;;;;;;;2.22;1.23;;;;;;;;;;4404896;32;20034;-76
2021/11/04 11:43:14;;;;;;;5.87;1.80;;;;;;;;;;4405357;32;20026;-75
2021/11/04 11:45:59;;;;;;;7.43;2.10;;;;;;;;;;4405179;32;20147;-75
2021/11/04 11:48:25;;;;;;;4.35;2.50;;;;;;;;;;4405115;32;20064;-75
2021/11/04 11:51:06;;;;;;;6.35;2.60;;;;;;;;;;4405089;32;20168;-75
2021/11/04 11:53:39;;;;;;;5.25;2.60;;;;;;;;;;4407991;32;20042;-75
2021/11/04 11:56:06;;;;;;;7.10;2.67;;;;;;;;;;4409060;32;20111;-75
2021/11/04 11:58:33;;;;;;;6.87;2.65;;;;;;;;;;4394360;32;20378;-75
2021/11/04 12:01:00;;;;;;;6.87;3.03;;;;;;;;;;4411598;32;20383;-76
2021/11/04 12:03:52;;;;;;;6.12;3.72;;;;;;;;;;4423315;32;20185;-74
2021/11/04 12:06:22;;;;;;;5.65;3.45;;;;;;;;;;4410091;32;20026;-75
2021/11/04 12:08:49;;;;;;;7.40;4.30;;;;;;;;;;4422901;32;20151;-74
2021/11/04 12:11:33;;;;;;;7.87;4.20;;;;;;;;;;4422915;32;20025;-75
2021/11/04 12:14:29;;;;;;;5.37;2.70;;;;;;;;;;4422956;32;20159;-75
2021/11/04 12:17:00;;;;;;;4.15;2.58;;;;;;;;;;4423427;32;20048;-75
2021/11/04 12:19:45;;;;;;;4.62;3.08;;;;;;;;;;4423652;32;20050;-74
2021/11/04 12:22:24;;;;;;;7.30;4.20;;;;;;;;;;4423431;32;20046;-75
2021/11/04 12:24:56;;;;;;;6.03;3.28;;;;;;;;;;4423493;32;20344;-75
2021/11/04 12:27:22;;;;;;;7.12;2.80;;;;;;;;;;4422530;32;20054;-76
2021/11/04 12:29:51;;;;;;;11.40;3.05;;;;;;;;;;4423123;32;20022;-75
2021/11/04 12:32:17;;;;;;;4.57;2.20;;;;;;;;;;4422787;32;20048;-74
2021/11/04 12:34:45;;;;;;;3.22;2.03;;;;;;;;;;4422612;32;20026;-75
2021/11/04 12:37:17;;;;;;;5.55;2.30;;;;;;;;;;4408926;32;20069;-77
2021/11/04 12:40:36;;;;;;;3.17;1.62;;;;;;;;;;4422993;32;20022;-76
2021/11/04 12:42:48;;;;;;;3.42;1.67;;;;;;;;;;4412337;32;20078;-76
2021/11/04 12:45:13;;;;;;;;;;;;;;;;;;4423478;32;20347;-75
2021/11/04 12:47:38;;;;;;;4.90;2.30;;;;;;;;;;4422494;32;19936;-75
2021/11/04 12:50:09;;;;;;;4.55;2.17;;;;;;;;;;4422771;32;20022;-75
2021/11/04 12:52:34;;;;;;;3.42;2.33;;;;;;;;;;4423790;32;20414;-75
2021/11/04 12:55:00;;;;;;;3.67;2.90;;;;;;;;;;4422241;32;20076;-75
2021/11/04 12:57:26;;;;;;;7.03;3.72;;;;;;;;;;4408465;32;20462;-74
2021/11/04 13:00:04;;;;;;;4.65;2.60;;;;;;;;;;4423231;32;20030;-74
2021/11/04 13:02:32;;;;;;;7.50;2.78;;;;;;;;;;4423263;32;20053;-71
2021/11/04 13:05:02;;;;;;;8.77;2.92;;;;;;;;;;4421802;32;20048;-74
2021/11/04 13:07:38;;;;;;;7.97;2.78;;;;;;;;;;4422104;32;20053;-74
2021/11/04 13:10:05;;;;;;;5.90;3.33;;;;;;;;;;4422439;32;20030;-74
2021/11/04 13:12:43;;;;;;;4.82;3.22;;;;;;;;;;4422353;32;20022;-75
2021/11/04 13:15:15;;;;;;;7.03;2.83;;;;;;;;;;4422257;32;20030;-75
2021/11/04 13:17:43;;;;;;;6.78;3.42;;;;;;;;;;4422151;32;20026;-74
2021/11/04 13:20:16;;;;;;;7.60;3.53;;;;;;;;;;4422152;32;20038;-74
2021/11/04 13:22:46;;;;;;;9.40;3.53;;;;;;;;;;4421827;32;20045;-73
2021/11/04 13:25:13;;;;;;;4.97;2.95;;;;;;;;;;4409144;32;20019;-74
2021/11/04 13:27:39;;;;;;;4.40;2.67;;;;;;;;;;4422056;32;20105;-74
2021/11/04 13:30:05;;;;;;;7.97;3.37;;;;;;;;;;4421873;32;20033;-74
2021/11/04 13:32:31;;;;;;;17.05;4.12;;;;;;;;;;4422050;32;20067;-75
2021/11/04 13:34:56;;;;;;;;;;;;;;;;;;4408925;32;20027;-75
2021/11/04 13:37:22;;;;;;;13.68;3.45;;;;;;;;;;4421669;32;20346;-76
2021/11/04 13:39:47;;;;;;;;;;;;;;;;;;4408034;32;20523;-75
2021/11/04 13:42:35;;;;;;;4.22;2.83;;;;;;;;;;4422019;32;19940;-75
2021/11/04 13:45:07;;;;;;;4.32;2.37;;;;;;;;;;4421619;32;20053;-74
2021/11/04 13:47:33;;;;;;;4.32;2.45;;;;;;;;;;4421844;32;20026;-75
2021/11/04 13:49:58;;;;;;;4.25;2.28;;;;;;;;;;4421748;32;20079;-75
2021/11/04 13:52:24;;;;;;;3.75;2.72;;;;;;;;;;4421805;32;20386;-75
2021/11/04 13:54:50;;;;;;;8.30;2.60;;;;;;;;;;4421370;32;20052;-76
2021/11/04 13:57:18;;;;;;;7.82;2.72;;;;;;;;;;4421697;32;20066;-74
2021/11/04 13:59:51;;;;;;;8.18;2.37;;;;;;;;;;4421956;32;20033;-73
2021/11/04 14:02:18;;;;;;;6.43;2.42;;;;;;;;;;4421835;32;20021;-75
2021/11/04 14:04:50;;;;;;;4.57;3.30;;;;;;;;;;4421937;32;20401;-73
2021/11/04 14:07:29;;;;;;;7.90;2.90;;;;;;;;;;4407303;32;20066;-75
2021/11/04 14:09:59;;;;;;;4.35;2.50;;;;;;;;;;4421163;32;20116;-75
2021/11/04 14:12:26;;;;;;;6.68;2.20;;;;;;;;;;4421158;32;20078;-70
2021/11/04 14:14:59;;;;;;;4.78;2.30;;;;;;;;;;4407764;32;20018;-75
2021/11/04 14:17:27;;;;;;;3.72;2.30;;;;;;;;;;4421650;32;20154;-72
2021/11/04 14:19:53;;;;;;;8.27;2.15;;;;;;;;;;4421624;32;20056;-74
2021/11/04 14:22:19;;;;;;;8.82;2.72;;;;;;;;;;4421634;32;20078;-74
2021/11/04 14:24:44;;;;;;;8.80;2.65;;;;;;;;;;4421195;32;20034;-75
2021/11/04 14:27:10;;;;;;;5.75;1.90;;;;;;;;;;4421103;32;20046;-75
2021/11/04 14:29:35;;;;;;;2.92;1.77;;;;;;;;;;4421208;32;20121;-76
2021/11/04 14:32:11;;;;;;;2.65;1.83;;;;;;;;;;4420793;32;20095;-74
2021/11/04 14:34:36;;;;;;;5.18;2.50;;;;;;;;;;4420973;32;20026;-73
2021/11/04 14:37:01;;;;;;;6.78;2.40;;;;;;;;;;4407527;32;20060;-76
2021/11/04 14:39:28;;;;;;;8.90;3.05;;;;;;;;;;4421116;32;20037;-75
2021/11/04 14:41:53;;;;;;;4.20;2.65;;;;;;;;;;4420600;32;20087;-73
2021/11/04 14:44:18;;;;;;;;;;;;;;;;;;4421866;32;20104;-75
2021/11/04 14:46:51;;;;;;;9.70;4.87;;;;;;;;;;4421526;32;19956;-74
2021/11/04 14:49:16;;;;;;;8.00;3.33;;;;;;;;;;4421068;32;20014;-74
2021/11/04 14:51:41;;;;;;;;;;;;;;;;;;4420983;32;20078;-74
2021/11/04 14:54:07;;;;;;;5.57;3.30;;;;;;;;;;4407627;32;19978;-75
2021/11/04 14:56:32;;;;;;;;;;;;;;;;;;4407376;32;20438;-75
2021/11/04 14:58:57;;;;;;;11.25;3.95;;;;;;;;;;4421104;32;19941;-74
2021/11/04 15:01:23;;;;;;;4.43;2.90;;;;;;;;;;4420860;32;20432;-74
2021/11/04 15:03:48;;;;;;;9.82;3.22;;;;;;;;;;4420430;32;20056;-74
2021/11/04 15:06:14;;;;;;;;;;;;;;;;;;4421089;32;20026;-75
2021/11/04 15:08:49;;;;;;;7.70;4.37;;;;;;;;;;4421005;32;19952;-75
2021/11/04 15:11:15;;;;;;;5.70;3.67;;;;;;;;;;4421005;32;20359;-74
2021/11/04 15:13:40;;;;;;;;;;;;;;;;;;4418246;32;20026;-74
2021/11/04 15:16:05;;;;;;;9.93;4.97;;;;;;;;;;4420725;32;20007;-75
2021/11/04 15:18:30;;;;;;;;;;;;;;;;;;4405957;32;20110;-76